sensor_id;sensor_type;location;lat;lon;timestamp;P1;durP1;ratioP1;P2;durP2;ratioP2
55609;SDS011;41486;52.502;13.486;2023-07-20T00:00:11;4.05;;;2.00;;
55609;SDS011;41486;52.502;13.486;2023-07-20T00:02:40;2.42;;;1.65;;
55609;SDS011;41486;52.502;13.486;2023-07-20T00:05:08;2.90;;;1.80;;
55609;SDS011;41486;52.502;13.486;2023-07-20T00:07:36;2.55;;;2.00;;
55609;SDS011;41486;52.502;13.486;2023-07-20T00:10:05;2.00;;;1.80;;
55609;SDS011;41486;52.502;13.486;2023-07-20T00:12:33;3.88;;;2.10;;
55609;SDS011;41486;52.502;13.486;2023-07-20T00:15:02;3.30;;;2.00;;
55609;SDS011;41486;52.502;13.486;2023-07-20T00:17:32;3.88;;;2.58;;
55609;SDS011;41486;52.502;13.486;2023-07-20T00:20:00;2.97;;;2.10;;
55609;SDS011;41486;52.502;13.486;2023-07-20T00:22:28;4.32;;;2.53;;
55609;SDS011;41486;52.502;13.486;2023-07-20T00:24:56;3.65;;;2.30;;
55609;SDS011;41486;52.502;13.486;2023-07-20T00:27:24;3.38;;;2.20;;
55609;SDS011;41486;52.502;13.486;2023-07-20T00:29:52;2.33;;;2.13;;
55609;SDS011;41486;52.502;13.486;2023-07-20T00:32:20;4.60;;;2.17;;
55609;SDS011;41486;52.502;13.486;2023-07-20T00:34:50;3.65;;;2.30;;
55609;SDS011;41486;52.502;13.486;2023-07-20T00:37:18;2.75;;;2.20;;
55609;SDS011;41486;52.502;13.486;2023-07-20T00:39:46;2.85;;;2.55;;
55609;SDS011;41486;52.502;13.486;2023-07-20T00:42:15;2.17;;;1.77;;
55609;SDS011;41486;52.502;13.486;2023-07-20T00:44:44;2.55;;;2.10;;
55609;SDS011;41486;52.502;13.486;2023-07-20T00:47:12;2.75;;;1.95;;
55609;SDS011;41486;52.502;13.486;2023-07-20T00:49:40;3.15;;;1.90;;
55609;SDS011;41486;52.502;13.486;2023-07-20T00:52:10;4.05;;;1.80;;
55609;SDS011;41486;52.502;13.486;2023-07-20T00:54:42;3.17;;;1.75;;
55609;SDS011;41486;52.502;13.486;2023-07-20T00:57:11;2.67;;;1.83;;
55609;SDS011;41486;52.502;13.486;2023-07-20T00:59:42;2.65;;;2.45;;
55609;SDS011;41486;52.502;13.486;2023-07-20T01:02:10;2.55;;;2.20;;
55609;SDS011;41486;52.502;13.486;2023-07-20T01:04:39;3.40;;;2.53;;
55609;SDS011;41486;52.502;13.486;2023-07-20T01:07:10;3.88;;;2.53;;
55609;SDS011;41486;52.502;13.486;2023-07-20T01:09:44;3.55;;;2.67;;
55609;SDS011;41486;52.502;13.486;2023-07-20T01:12:50;3.25;;;2.42;;
55609;SDS011;41486;52.502;13.486;2023-07-20T01:15:20;2.53;;;2.30;;
55609;SDS011;41486;52.502;13.486;2023-07-20T01:17:48;4.30;;;2.70;;
55609;SDS011;41486;52.502;13.486;2023-07-20T01:20:17;3.72;;;2.40;;
55609;SDS011;41486;52.502;13.486;2023-07-20T01:25:55;2.70;;;2.30;;
55609;SDS011;41486;52.502;13.486;2023-07-20T01:28:56;3.45;;;3.15;;
55609;SDS011;41486;52.502;13.486;2023-07-20T01:31:33;4.35;;;2.70;;
55609;SDS011;41486;52.502;13.486;2023-07-20T01:34:04;2.67;;;2.30;;
55609;SDS011;41486;52.502;13.486;2023-07-20T01:36:36;3.10;;;2.47;;
55609;SDS011;41486;52.502;13.486;2023-07-20T01:39:05;2.80;;;2.40;;
55609;SDS011;41486;52.502;13.486;2023-07-20T01:41:34;3.25;;;2.92;;
55609;SDS011;41486;52.502;13.486;2023-07-20T01:44:03;4.38;;;3.08;;
55609;SDS011;41486;52.502;13.486;2023-07-20T01:46:33;3.10;;;2.80;;
55609;SDS011;41486;52.502;13.486;2023-07-20T01:49:02;2.92;;;2.38;;
55609;SDS011;41486;52.502;13.486;2023-07-20T01:51:31;3.50;;;2.88;;
55609;SDS011;41486;52.502;13.486;2023-07-20T01:53:59;5.13;;;3.30;;
55609;SDS011;41486;52.502;13.486;2023-07-20T01:56:27;3.30;;;3.00;;
55609;SDS011;41486;52.502;13.486;2023-07-20T01:58:55;4.78;;;4.03;;
55609;SDS011;41486;52.502;13.486;2023-07-20T02:01:23;4.25;;;3.33;;
55609;SDS011;41486;52.502;13.486;2023-07-20T02:03:53;3.72;;;3.30;;
55609;SDS011;41486;52.502;13.486;2023-07-20T02:06:21;3.95;;;3.38;;
55609;SDS011;41486;52.502;13.486;2023-07-20T02:08:49;4.05;;;3.17;;
55609;SDS011;41486;52.502;13.486;2023-07-20T02:11:17;5.53;;;3.53;;
55609;SDS011;41486;52.502;13.486;2023-07-20T02:13:45;4.35;;;3.78;;
55609;SDS011;41486;52.502;13.486;2023-07-20T02:16:14;3.60;;;3.30;;
55609;SDS011;41486;52.502;13.486;2023-07-20T02:18:42;3.25;;;2.95;;
55609;SDS011;41486;52.502;13.486;2023-07-20T02:21:12;3.97;;;2.67;;
55609;SDS011;41486;52.502;13.486;2023-07-20T02:23:40;3.67;;;3.03;;
55609;SDS011;41486;52.502;13.486;2023-07-20T02:26:09;3.85;;;3.10;;
55609;SDS011;41486;52.502;13.486;2023-07-20T02:28:37;5.40;;;2.90;;
55609;SDS011;41486;52.502;13.486;2023-07-20T02:31:05;4.20;;;2.83;;
55609;SDS011;41486;52.502;13.486;2023-07-20T02:33:33;3.05;;;2.75;;
55609;SDS011;41486;52.502;13.486;2023-07-20T02:36:01;3.05;;;2.70;;
55609;SDS011;41486;52.502;13.486;2023-07-20T02:38:31;4.00;;;3.03;;
55609;SDS011;41486;52.502;13.486;2023-07-20T02:40:59;4.75;;;3.20;;
55609;SDS011;41486;52.502;13.486;2023-07-20T02:43:27;4.00;;;3.60;;
55609;SDS011;41486;52.502;13.486;2023-07-20T02:46:01;4.30;;;3.30;;
55609;SDS011;41486;52.502;13.486;2023-07-20T02:48:29;4.63;;;3.80;;
55609;SDS011;41486;52.502;13.486;2023-07-20T02:50:57;7.28;;;4.55;;
55609;SDS011;41486;52.502;13.486;2023-07-20T02:53:25;5.45;;;4.20;;
55609;SDS011;41486;52.502;13.486;2023-07-20T02:55:54;5.82;;;4.97;;
55609;SDS011;41486;52.502;13.486;2023-07-20T02:58:23;5.90;;;4.30;;
55609;SDS011;41486;52.502;13.486;2023-07-20T03:00:51;5.97;;;5.20;;
55609;SDS011;41486;52.502;13.486;2023-07-20T03:03:19;6.55;;;4.90;;
55609;SDS011;41486;52.502;13.486;2023-07-20T03:05:48;6.45;;;5.20;;
55609;SDS011;41486;52.502;13.486;2023-07-20T03:08:21;6.65;;;4.80;;
55609;SDS011;41486;52.502;13.486;2023-07-20T03:10:49;5.93;;;4.93;;
55609;SDS011;41486;52.502;13.486;2023-07-20T03:13:18;5.80;;;4.70;;
55609;SDS011;41486;52.502;13.486;2023-07-20T03:15:46;5.72;;;4.80;;
55609;SDS011;41486;52.502;13.486;2023-07-20T03:18:14;10.18;;;5.05;;
55609;SDS011;41486;52.502;13.486;2023-07-20T03:20:42;6.70;;;5.00;;
55609;SDS011;41486;52.502;13.486;2023-07-20T03:23:11;6.85;;;5.03;;
55609;SDS011;41486;52.502;13.486;2023-07-20T03:25:39;5.43;;;4.38;;
55609;SDS011;41486;52.502;13.486;2023-07-20T03:28:07;7.95;;;5.57;;
55609;SDS011;41486;52.502;13.486;2023-07-20T03:30:37;6.90;;;4.93;;
55609;SDS011;41486;52.502;13.486;2023-07-20T03:33:05;6.15;;;5.22;;
55609;SDS011;41486;52.502;13.486;2023-07-20T03:35:33;6.65;;;4.53;;
55609;SDS011;41486;52.502;13.486;2023-07-20T03:38:03;5.25;;;4.63;;
55609;SDS011;41486;52.502;13.486;2023-07-20T03:40:31;6.57;;;5.20;;
55609;SDS011;41486;52.502;13.486;2023-07-20T03:42:59;7.32;;;4.95;;
55609;SDS011;41486;52.502;13.486;2023-07-20T03:45:27;6.45;;;4.80;;
55609;SDS011;41486;52.502;13.486;2023-07-20T03:47:57;5.88;;;4.85;;
55609;SDS011;41486;52.502;13.486;2023-07-20T03:50:25;7.28;;;4.55;;
55609;SDS011;41486;52.502;13.486;2023-07-20T03:52:53;5.93;;;5.30;;
55609;SDS011;41486;52.502;13.486;2023-07-20T03:55:21;6.60;;;5.13;;
55609;SDS011;41486;52.502;13.486;2023-07-20T03:57:49;8.93;;;5.63;;
55609;SDS011;41486;52.502;13.486;2023-07-20T04:00:17;5.90;;;5.30;;
55609;SDS011;41486;52.502;13.486;2023-07-20T04:02:46;5.78;;;5.18;;
55609;SDS011;41486;52.502;13.486;2023-07-20T04:05:15;8.30;;;4.85;;
55609;SDS011;41486;52.502;13.486;2023-07-20T04:07:43;9.13;;;5.03;;
55609;SDS011;41486;52.502;13.486;2023-07-20T04:10:11;7.45;;;4.80;;
55609;SDS011;41486;52.502;13.486;2023-07-20T04:12:40;5.75;;;4.43;;
55609;SDS011;41486;52.502;13.486;2023-07-20T04:15:08;6.85;;;4.57;;
55609;SDS011;41486;52.502;13.486;2023-07-20T04:17:37;5.95;;;4.50;;
55609;SDS011;41486;52.502;13.486;2023-07-20T04:20:05;5.43;;;4.15;;
55609;SDS011;41486;52.502;13.486;2023-07-20T04:22:35;5.85;;;4.65;;
55609;SDS011;41486;52.502;13.486;2023-07-20T04:25:06;4.40;;;3.95;;
55609;SDS011;41486;52.502;13.486;2023-07-20T04:27:34;5.75;;;4.22;;
55609;SDS011;41486;52.502;13.486;2023-07-20T04:30:03;5.30;;;4.80;;
55609;SDS011;41486;52.502;13.486;2023-07-20T04:32:33;4.70;;;4.20;;
55609;SDS011;41486;52.502;13.486;2023-07-20T04:35:05;5.95;;;4.80;;
55609;SDS011;41486;52.502;13.486;2023-07-20T04:37:37;7.45;;;5.40;;
55609;SDS011;41486;52.502;13.486;2023-07-20T04:40:15;6.35;;;4.38;;
55609;SDS011;41486;52.502;13.486;2023-07-20T04:42:44;6.35;;;4.45;;
55609;SDS011;41486;52.502;13.486;2023-07-20T04:45:12;6.75;;;5.13;;
55609;SDS011;41486;52.502;13.486;2023-07-20T04:47:40;6.85;;;5.03;;
55609;SDS011;41486;52.502;13.486;2023-07-20T04:50:09;6.03;;;4.18;;
55609;SDS011;41486;52.502;13.486;2023-07-20T04:52:39;5.53;;;3.88;;
55609;SDS011;41486;52.502;13.486;2023-07-20T04:55:12;5.78;;;4.20;;
55609;SDS011;41486;52.502;13.486;2023-07-20T04:57:41;7.22;;;4.72;;
55609;SDS011;41486;52.502;13.486;2023-07-20T05:00:09;6.85;;;4.30;;
55609;SDS011;41486;52.502;13.486;2023-07-20T05:02:40;6.72;;;4.32;;
55609;SDS011;41486;52.502;13.486;2023-07-20T05:05:08;5.70;;;4.10;;
55609;SDS011;41486;52.502;13.486;2023-07-20T05:07:36;7.03;;;3.60;;
55609;SDS011;41486;52.502;13.486;2023-07-20T05:10:07;5.70;;;3.95;;
55609;SDS011;41486;52.502;13.486;2023-07-20T05:12:35;6.28;;;3.88;;
55609;SDS011;41486;52.502;13.486;2023-07-20T05:15:03;6.68;;;4.35;;
55609;SDS011;41486;52.502;13.486;2023-07-20T05:17:32;4.00;;;3.60;;
55609;SDS011;41486;52.502;13.486;2023-07-20T05:20:00;5.38;;;4.13;;
55609;SDS011;41486;52.502;13.486;2023-07-20T05:22:31;5.43;;;4.53;;
55609;SDS011;41486;52.502;13.486;2023-07-20T05:25:00;8.40;;;4.90;;
55609;SDS011;41486;52.502;13.486;2023-07-20T05:27:30;4.25;;;3.85;;
55609;SDS011;41486;52.502;13.486;2023-07-20T05:29:58;9.02;;;4.25;;
55609;SDS011;41486;52.502;13.486;2023-07-20T05:32:29;4.30;;;3.13;;
55609;SDS011;41486;52.502;13.486;2023-07-20T05:34:58;4.70;;;3.53;;
55609;SDS011;41486;52.502;13.486;2023-07-20T05:37:27;4.80;;;2.60;;
55609;SDS011;41486;52.502;13.486;2023-07-20T05:39:54;3.78;;;2.90;;
55609;SDS011;41486;52.502;13.486;2023-07-20T05:42:22;4.35;;;3.13;;
55609;SDS011;41486;52.502;13.486;2023-07-20T05:44:52;3.58;;;2.65;;
55609;SDS011;41486;52.502;13.486;2023-07-20T05:47:21;3.78;;;2.78;;
55609;SDS011;41486;52.502;13.486;2023-07-20T05:49:50;4.35;;;3.45;;
55609;SDS011;41486;52.502;13.486;2023-07-20T05:52:18;6.75;;;4.13;;
55609;SDS011;41486;52.502;13.486;2023-07-20T05:54:46;3.10;;;2.80;;
55609;SDS011;41486;52.502;13.486;2023-07-20T05:57:14;2.95;;;2.63;;
55609;SDS011;41486;52.502;13.486;2023-07-20T05:59:42;3.25;;;2.63;;
55609;SDS011;41486;52.502;13.486;2023-07-20T06:02:12;3.38;;;2.72;;
55609;SDS011;41486;52.502;13.486;2023-07-20T06:04:40;3.25;;;2.50;;
55609;SDS011;41486;52.502;13.486;2023-07-20T06:07:08;4.00;;;2.25;;
55609;SDS011;41486;52.502;13.486;2023-07-20T06:09:36;3.20;;;2.42;;
55609;SDS011;41486;52.502;13.486;2023-07-20T06:12:05;3.47;;;2.72;;
55609;SDS011;41486;52.502;13.486;2023-07-20T06:14:34;4.03;;;3.10;;
55609;SDS011;41486;52.502;13.486;2023-07-20T06:17:02;3.55;;;2.88;;
55609;SDS011;41486;52.502;13.486;2023-07-20T06:19:31;4.45;;;3.13;;
55609;SDS011;41486;52.502;13.486;2023-07-20T06:21:59;3.70;;;3.22;;
55609;SDS011;41486;52.502;13.486;2023-07-20T06:24:27;3.75;;;3.10;;
55609;SDS011;41486;52.502;13.486;2023-07-20T06:26:55;3.40;;;3.10;;
55609;SDS011;41486;52.502;13.486;2023-07-20T06:29:23;4.30;;;2.95;;
55609;SDS011;41486;52.502;13.486;2023-07-20T06:31:51;7.50;;;3.63;;
55609;SDS011;41486;52.502;13.486;2023-07-20T06:34:20;4.20;;;3.80;;
55609;SDS011;41486;52.502;13.486;2023-07-20T06:36:51;5.10;;;2.90;;
55609;SDS011;41486;52.502;13.486;2023-07-20T06:39:19;3.03;;;2.65;;
55609;SDS011;41486;52.502;13.486;2023-07-20T06:41:51;3.72;;;2.88;;
55609;SDS011;41486;52.502;13.486;2023-07-20T06:44:21;3.65;;;2.78;;
55609;SDS011;41486;52.502;13.486;2023-07-20T06:46:49;3.63;;;2.42;;
55609;SDS011;41486;52.502;13.486;2023-07-20T06:49:26;1.83;;;1.63;;
55609;SDS011;41486;52.502;13.486;2023-07-20T06:51:56;2.63;;;2.15;;
55609;SDS011;41486;52.502;13.486;2023-07-20T06:54:24;2.03;;;1.77;;
55609;SDS011;41486;52.502;13.486;2023-07-20T06:56:52;2.90;;;2.20;;
55609;SDS011;41486;52.502;13.486;2023-07-20T06:59:23;2.03;;;1.80;;
55609;SDS011;41486;52.502;13.486;2023-07-20T07:01:51;2.10;;;1.90;;
55609;SDS011;41486;52.502;13.486;2023-07-20T07:04:19;2.50;;;1.50;;
55609;SDS011;41486;52.502;13.486;2023-07-20T07:06:48;2.17;;;1.55;;
55609;SDS011;41486;52.502;13.486;2023-07-20T07:09:17;1.77;;;1.50;;
55609;SDS011;41486;52.502;13.486;2023-07-20T07:11:45;4.63;;;1.27;;
55609;SDS011;41486;52.502;13.486;2023-07-20T07:14:13;3.05;;;1.40;;
55609;SDS011;41486;52.502;13.486;2023-07-20T07:16:42;3.28;;;1.50;;
55609;SDS011;41486;52.502;13.486;2023-07-20T07:19:10;1.65;;;1.20;;
55609;SDS011;41486;52.502;13.486;2023-07-20T07:21:38;2.05;;;1.60;;
55609;SDS011;41486;52.502;13.486;2023-07-20T07:24:06;1.60;;;1.35;;
55609;SDS011;41486;52.502;13.486;2023-07-20T07:26:37;1.80;;;1.70;;
55609;SDS011;41486;52.502;13.486;2023-07-20T07:29:06;1.90;;;1.27;;
55609;SDS011;41486;52.502;13.486;2023-07-20T07:31:34;1.45;;;1.30;;
55609;SDS011;41486;52.502;13.486;2023-07-20T07:34:03;3.83;;;1.50;;
55609;SDS011;41486;52.502;13.486;2023-07-20T07:36:31;4.10;;;1.10;;
55609;SDS011;41486;52.502;13.486;2023-07-20T07:39:00;1.23;;;1.10;;
55609;SDS011;41486;52.502;13.486;2023-07-20T07:41:50;1.85;;;0.82;;
55609;SDS011;41486;52.502;13.486;2023-07-20T07:44:18;1.25;;;0.82;;
55609;SDS011;41486;52.502;13.486;2023-07-20T07:46:47;1.13;;;1.02;;
55609;SDS011;41486;52.502;13.486;2023-07-20T07:49:16;1.80;;;0.90;;
55609;SDS011;41486;52.502;13.486;2023-07-20T07:51:45;0.35;;;0.35;;
55609;SDS011;41486;52.502;13.486;2023-07-20T07:54:13;0.50;;;0.50;;
55609;SDS011;41486;52.502;13.486;2023-07-20T07:56:41;0.57;;;0.57;;
55609;SDS011;41486;52.502;13.486;2023-07-20T07:59:12;1.08;;;0.90;;
55609;SDS011;41486;52.502;13.486;2023-07-20T08:01:40;0.88;;;0.80;;
55609;SDS011;41486;52.502;13.486;2023-07-20T08:04:08;1.25;;;1.15;;
55609;SDS011;41486;52.502;13.486;2023-07-20T08:06:36;0.60;;;0.60;;
55609;SDS011;41486;52.502;13.486;2023-07-20T08:09:04;1.00;;;0.60;;
55609;SDS011;41486;52.502;13.486;2023-07-20T08:11:32;1.00;;;0.70;;
55609;SDS011;41486;52.502;13.486;2023-07-20T08:14:00;2.13;;;0.70;;
55609;SDS011;41486;52.502;13.486;2023-07-20T08:16:30;2.25;;;0.70;;
55609;SDS011;41486;52.502;13.486;2023-07-20T08:18:59;4.65;;;1.10;;
55609;SDS011;41486;52.502;13.486;2023-07-20T08:21:28;0.70;;;0.70;;
55609;SDS011;41486;52.502;13.486;2023-07-20T08:23:56;0.75;;;0.70;;
55609;SDS011;41486;52.502;13.486;2023-07-20T08:26:24;3.60;;;0.70;;
55609;SDS011;41486;52.502;13.486;2023-07-20T08:28:53;1.83;;;0.77;;
55609;SDS011;41486;52.502;13.486;2023-07-20T08:31:21;1.75;;;0.70;;
55609;SDS011;41486;52.502;13.486;2023-07-20T08:33:51;0.60;;;0.50;;
55609;SDS011;41486;52.502;13.486;2023-07-20T08:36:19;0.50;;;0.50;;
55609;SDS011;41486;52.502;13.486;2023-07-20T08:38:47;1.00;;;0.70;;
55609;SDS011;41486;52.502;13.486;2023-07-20T08:41:15;0.70;;;0.60;;
55609;SDS011;41486;52.502;13.486;2023-07-20T08:43:44;0.52;;;0.50;;
55609;SDS011;41486;52.502;13.486;2023-07-20T08:46:14;0.50;;;0.50;;
55609;SDS011;41486;52.502;13.486;2023-07-20T08:48:43;0.40;;;0.40;;
55609;SDS011;41486;52.502;13.486;2023-07-20T08:51:13;1.15;;;0.43;;
55609;SDS011;41486;52.502;13.486;2023-07-20T08:53:43;1.98;;;0.70;;
55609;SDS011;41486;52.502;13.486;2023-07-20T08:56:13;0.63;;;0.60;;
55609;SDS011;41486;52.502;13.486;2023-07-20T08:58:43;0.50;;;0.50;;
55609;SDS011;41486;52.502;13.486;2023-07-20T09:01:12;0.60;;;0.57;;
55609;SDS011;41486;52.502;13.486;2023-07-20T09:03:42;0.30;;;0.30;;
55609;SDS011;41486;52.502;13.486;2023-07-20T09:06:15;0.30;;;0.30;;
55609;SDS011;41486;52.502;13.486;2023-07-20T09:08:44;0.32;;;0.30;;
55609;SDS011;41486;52.502;13.486;2023-07-20T09:11:12;0.40;;;0.40;;
55609;SDS011;41486;52.502;13.486;2023-07-20T09:13:41;1.25;;;0.60;;
55609;SDS011;41486;52.502;13.486;2023-07-20T09:16:10;1.27;;;0.63;;
55609;SDS011;41486;52.502;13.486;2023-07-20T09:18:41;1.73;;;0.80;;
55609;SDS011;41486;52.502;13.486;2023-07-20T09:21:10;3.15;;;0.50;;
55609;SDS011;41486;52.502;13.486;2023-07-20T09:23:39;1.65;;;0.50;;
55609;SDS011;41486;52.502;13.486;2023-07-20T09:26:11;0.50;;;0.47;;
55609;SDS011;41486;52.502;13.486;2023-07-20T09:28:43;1.50;;;0.50;;
55609;SDS011;41486;52.502;13.486;2023-07-20T09:31:16;0.57;;;0.50;;
55609;SDS011;41486;52.502;13.486;2023-07-20T09:33:45;0.75;;;0.60;;
55609;SDS011;41486;52.502;13.486;2023-07-20T09:36:20;0.88;;;0.47;;
55609;SDS011;41486;52.502;13.486;2023-07-20T09:39:09;0.98;;;0.50;;
55609;SDS011;41486;52.502;13.486;2023-07-20T09:41:40;0.70;;;0.40;;
55609;SDS011;41486;52.502;13.486;2023-07-20T09:44:13;0.30;;;0.30;;
55609;SDS011;41486;52.502;13.486;2023-07-20T09:46:45;0.55;;;0.55;;
55609;SDS011;41486;52.502;13.486;2023-07-20T09:49:17;0.43;;;0.43;;
55609;SDS011;41486;52.502;13.486;2023-07-20T09:51:48;0.40;;;0.40;;
55609;SDS011;41486;52.502;13.486;2023-07-20T09:54:19;5.78;;;3.30;;
55609;SDS011;41486;52.502;13.486;2023-07-20T09:56:49;5.40;;;3.20;;
55609;SDS011;41486;52.502;13.486;2023-07-20T09:59:19;2.05;;;0.70;;
55609;SDS011;41486;52.502;13.486;2023-07-20T10:01:47;0.88;;;0.60;;
55609;SDS011;41486;52.502;13.486;2023-07-20T10:04:16;0.60;;;0.50;;
55609;SDS011;41486;52.502;13.486;2023-07-20T10:06:49;0.40;;;0.40;;
55609;SDS011;41486;52.502;13.486;2023-07-20T10:09:21;0.68;;;0.40;;
55609;SDS011;41486;52.502;13.486;2023-07-20T10:11:51;2.28;;;0.52;;
55609;SDS011;41486;52.502;13.486;2023-07-20T10:14:38;1.23;;;0.77;;
55609;SDS011;41486;52.502;13.486;2023-07-20T10:17:12;2.58;;;0.80;;
55609;SDS011;41486;52.502;13.486;2023-07-20T10:19:43;0.90;;;0.73;;
55609;SDS011;41486;52.502;13.486;2023-07-20T10:22:19;2.88;;;0.70;;
55609;SDS011;41486;52.502;13.486;2023-07-20T10:24:54;0.60;;;0.50;;
55609;SDS011;41486;52.502;13.486;2023-07-20T10:27:27;0.47;;;0.40;;
55609;SDS011;41486;52.502;13.486;2023-07-20T10:29:55;0.75;;;0.75;;
55609;SDS011;41486;52.502;13.486;2023-07-20T10:32:25;0.70;;;0.70;;
55609;SDS011;41486;52.502;13.486;2023-07-20T10:34:55;1.25;;;0.60;;
55609;SDS011;41486;52.502;13.486;2023-07-20T10:40:38;0.80;;;0.80;;
55609;SDS011;41486;52.502;13.486;2023-07-20T10:43:07;1.02;;;0.70;;
55609;SDS011;41486;52.502;13.486;2023-07-20T10:45:41;1.75;;;0.93;;
55609;SDS011;41486;52.502;13.486;2023-07-20T10:48:13;1.17;;;0.70;;
55609;SDS011;41486;52.502;13.486;2023-07-20T10:50:42;1.40;;;1.25;;
55609;SDS011;41486;52.502;13.486;2023-07-20T10:53:11;1.25;;;0.70;;
55609;SDS011;41486;52.502;13.486;2023-07-20T10:55:44;1.13;;;0.50;;
55609;SDS011;41486;52.502;13.486;2023-07-20T10:58:17;0.60;;;0.60;;
55609;SDS011;41486;52.502;13.486;2023-07-20T11:03:36;1.98;;;0.50;;
55609;SDS011;41486;52.502;13.486;2023-07-20T11:09:04;1.75;;;0.70;;
55609;SDS011;41486;52.502;13.486;2023-07-20T11:11:39;1.13;;;0.88;;
55609;SDS011;41486;52.502;13.486;2023-07-20T11:14:09;1.48;;;0.73;;
55609;SDS011;41486;52.502;13.486;2023-07-20T11:16:40;0.90;;;0.73;;
55609;SDS011;41486;52.502;13.486;2023-07-20T11:19:14;1.00;;;0.80;;
55609;SDS011;41486;52.502;13.486;2023-07-20T11:22:03;0.75;;;0.68;;
55609;SDS011;41486;52.502;13.486;2023-07-20T11:24:34;1.98;;;0.90;;
55609;SDS011;41486;52.502;13.486;2023-07-20T11:27:07;2.15;;;1.02;;
55609;SDS011;41486;52.502;13.486;2023-07-20T11:29:37;0.50;;;0.50;;
55609;SDS011;41486;52.502;13.486;2023-07-20T11:32:05;0.70;;;0.60;;
55609;SDS011;41486;52.502;13.486;2023-07-20T11:34:34;1.02;;;0.63;;
55609;SDS011;41486;52.502;13.486;2023-07-20T11:37:03;0.80;;;0.60;;
55609;SDS011;41486;52.502;13.486;2023-07-20T11:39:36;1.55;;;0.80;;
55609;SDS011;41486;52.502;13.486;2023-07-20T11:42:04;0.88;;;0.80;;
55609;SDS011;41486;52.502;13.486;2023-07-20T11:44:35;0.50;;;0.47;;
55609;SDS011;41486;52.502;13.486;2023-07-20T11:47:04;0.50;;;0.50;;
55609;SDS011;41486;52.502;13.486;2023-07-20T11:49:35;0.82;;;0.60;;
55609;SDS011;41486;52.502;13.486;2023-07-20T11:52:05;0.60;;;0.60;;
55609;SDS011;41486;52.502;13.486;2023-07-20T11:54:35;0.70;;;0.70;;
55609;SDS011;41486;52.502;13.486;2023-07-20T11:57:04;0.68;;;0.50;;
55609;SDS011;41486;52.502;13.486;2023-07-20T11:59:33;0.88;;;0.60;;
55609;SDS011;41486;52.502;13.486;2023-07-20T12:02:02;0.73;;;0.60;;
55609;SDS011;41486;52.502;13.486;2023-07-20T12:04:32;0.75;;;0.60;;
55609;SDS011;41486;52.502;13.486;2023-07-20T12:07:01;0.70;;;0.32;;
55609;SDS011;41486;52.502;13.486;2023-07-20T12:09:30;1.00;;;0.50;;
55609;SDS011;41486;52.502;13.486;2023-07-20T12:12:18;0.30;;;0.30;;
55609;SDS011;41486;52.502;13.486;2023-07-20T12:14:48;1.60;;;0.50;;
55609;SDS011;41486;52.502;13.486;2023-07-20T12:17:16;0.40;;;0.40;;
55609;SDS011;41486;52.502;13.486;2023-07-20T12:19:45;0.50;;;0.50;;
55609;SDS011;41486;52.502;13.486;2023-07-20T12:22:13;0.30;;;0.30;;
55609;SDS011;41486;52.502;13.486;2023-07-20T12:24:41;0.77;;;0.52;;
55609;SDS011;41486;52.502;13.486;2023-07-20T12:27:12;0.55;;;0.40;;
55609;SDS011;41486;52.502;13.486;2023-07-20T12:29:44;0.70;;;0.30;;
55609;SDS011;41486;52.502;13.486;2023-07-20T12:32:14;0.57;;;0.40;;
55609;SDS011;41486;52.502;13.486;2023-07-20T12:34:42;0.50;;;0.50;;
55609;SDS011;41486;52.502;13.486;2023-07-20T12:37:11;0.60;;;0.28;;
55609;SDS011;41486;52.502;13.486;2023-07-20T12:39:39;0.75;;;0.40;;
55609;SDS011;41486;52.502;13.486;2023-07-20T12:42:14;0.88;;;0.45;;
55609;SDS011;41486;52.502;13.486;2023-07-20T12:44:43;0.35;;;0.30;;
55609;SDS011;41486;52.502;13.486;2023-07-20T12:47:15;0.70;;;0.47;;
55609;SDS011;41486;52.502;13.486;2023-07-20T12:49:44;1.65;;;0.52;;
55609;SDS011;41486;52.502;13.486;2023-07-20T12:52:13;0.47;;;0.47;;
55609;SDS011;41486;52.502;13.486;2023-07-20T12:54:41;0.60;;;0.60;;
55609;SDS011;41486;52.502;13.486;2023-07-20T12:57:09;0.47;;;0.40;;
55609;SDS011;41486;52.502;13.486;2023-07-20T12:59:39;0.68;;;0.40;;
55609;SDS011;41486;52.502;13.486;2023-07-20T13:02:07;1.52;;;0.50;;
55609;SDS011;41486;52.502;13.486;2023-07-20T13:04:37;0.60;;;0.50;;
55609;SDS011;41486;52.502;13.486;2023-07-20T13:07:05;1.25;;;0.50;;
55609;SDS011;41486;52.502;13.486;2023-07-20T13:09:38;2.05;;;0.70;;
55609;SDS011;41486;52.502;13.486;2023-07-20T13:12:07;1.35;;;0.57;;
55609;SDS011;41486;52.502;13.486;2023-07-20T13:14:36;0.38;;;0.38;;
55609;SDS011;41486;52.502;13.486;2023-07-20T13:17:04;0.50;;;0.47;;
55609;SDS011;41486;52.502;13.486;2023-07-20T13:19:32;0.43;;;0.40;;
55609;SDS011;41486;52.502;13.486;2023-07-20T13:22:03;0.40;;;0.30;;
55609;SDS011;41486;52.502;13.486;2023-07-20T13:24:31;0.80;;;0.45;;
55609;SDS011;41486;52.502;13.486;2023-07-20T13:27:00;3.13;;;0.45;;
55609;SDS011;41486;52.502;13.486;2023-07-20T13:29:28;0.63;;;0.50;;
55609;SDS011;41486;52.502;13.486;2023-07-20T13:31:56;1.15;;;0.40;;
55609;SDS011;41486;52.502;13.486;2023-07-20T13:34:25;0.52;;;0.32;;
55609;SDS011;41486;52.502;13.486;2023-07-20T13:36:57;1.35;;;0.40;;
55609;SDS011;41486;52.502;13.486;2023-07-20T13:39:27;0.30;;;0.30;;
55609;SDS011;41486;52.502;13.486;2023-07-20T13:41:55;0.30;;;0.30;;
55609;SDS011;41486;52.502;13.486;2023-07-20T13:44:23;0.75;;;0.50;;
55609;SDS011;41486;52.502;13.486;2023-07-20T13:46:52;0.68;;;0.50;;
55609;SDS011;41486;52.502;13.486;2023-07-20T13:49:40;0.57;;;0.30;;
55609;SDS011;41486;52.502;13.486;2023-07-20T13:52:11;0.63;;;0.40;;
55609;SDS011;41486;52.502;13.486;2023-07-20T13:54:43;0.43;;;0.40;;
55609;SDS011;41486;52.502;13.486;2023-07-20T13:59:44;0.75;;;0.47;;
55609;SDS011;41486;52.502;13.486;2023-07-20T14:02:13;0.20;;;0.20;;
55609;SDS011;41486;52.502;13.486;2023-07-20T14:04:44;0.30;;;0.30;;
55609;SDS011;41486;52.502;13.486;2023-07-20T14:07:15;1.25;;;0.60;;
55609;SDS011;41486;52.502;13.486;2023-07-20T14:09:44;1.92;;;0.55;;
55609;SDS011;41486;52.502;13.486;2023-07-20T14:12:15;0.40;;;0.40;;
55609;SDS011;41486;52.502;13.486;2023-07-20T14:14:46;4.63;;;0.40;;
55609;SDS011;41486;52.502;13.486;2023-07-20T14:17:14;1.35;;;0.40;;
55609;SDS011;41486;52.502;13.486;2023-07-20T14:19:42;0.30;;;0.30;;
55609;SDS011;41486;52.502;13.486;2023-07-20T14:22:10;0.32;;;0.32;;
55609;SDS011;41486;52.502;13.486;2023-07-20T14:24:38;3.10;;;0.98;;
55609;SDS011;41486;52.502;13.486;2023-07-20T14:27:08;1.45;;;0.88;;
55609;SDS011;41486;52.502;13.486;2023-07-20T14:29:36;0.40;;;0.40;;
55609;SDS011;41486;52.502;13.486;2023-07-20T14:32:04;1.70;;;0.40;;
55609;SDS011;41486;52.502;13.486;2023-07-20T14:34:34;0.43;;;0.43;;
55609;SDS011;41486;52.502;13.486;2023-07-20T14:37:05;0.60;;;0.30;;
55609;SDS011;41486;52.502;13.486;2023-07-20T14:39:33;0.40;;;0.38;;
55609;SDS011;41486;52.502;13.486;2023-07-20T14:42:01;0.60;;;0.40;;
55609;SDS011;41486;52.502;13.486;2023-07-20T14:44:32;0.85;;;0.63;;
55609;SDS011;41486;52.502;13.486;2023-07-20T14:47:03;1.07;;;0.50;;
55609;SDS011;41486;52.502;13.486;2023-07-20T14:49:40;0.65;;;0.43;;
55609;SDS011;41486;52.502;13.486;2023-07-20T14:52:08;0.60;;;0.50;;
55609;SDS011;41486;52.502;13.486;2023-07-20T14:54:39;0.40;;;0.30;;
55609;SDS011;41486;52.502;13.486;2023-07-20T14:57:07;1.60;;;0.50;;
55609;SDS011;41486;52.502;13.486;2023-07-20T14:59:42;0.43;;;0.40;;
55609;SDS011;41486;52.502;13.486;2023-07-20T15:02:11;1.55;;;0.60;;